createdAt,value
2017-09-26T00:01:25.387Z,15.57
2017-09-26T00:03:52.830Z,13.27
2017-09-26T00:06:20.262Z,13.17
2017-09-26T00:08:47.691Z,14.60
2017-09-26T00:11:15.141Z,14.43
2017-09-26T00:13:42.598Z,14.53
2017-09-26T00:16:10.037Z,13.00
2017-09-26T00:18:37.473Z,14.37
2017-09-26T00:21:04.942Z,14.60
2017-09-26T00:23:32.392Z,14.53
2017-09-26T00:25:59.851Z,15.20
2017-09-26T00:28:27.305Z,12.93
2017-09-26T00:30:54.761Z,12.50
2017-09-26T00:33:22.201Z,14.50
2017-09-26T00:35:50.093Z,14.30
2017-09-26T00:38:17.555Z,12.47
2017-09-26T00:40:44.998Z,13.23
2017-09-26T00:43:12.459Z,13.90
2017-09-26T00:45:39.891Z,15.00
2017-09-26T00:48:07.324Z,13.90
2017-09-26T00:50:35.532Z,14.30
2017-09-26T00:53:03.254Z,13.80
2017-09-26T00:55:30.677Z,14.80
2017-09-26T00:57:58.117Z,13.77
2017-09-26T01:00:25.555Z,15.00
2017-09-26T01:02:52.998Z,14.47
2017-09-26T01:05:31.098Z,13.90
2017-09-26T01:07:59.321Z,13.13
2017-09-26T01:10:26.760Z,14.70
2017-09-26T01:12:54.258Z,14.60
2017-09-26T01:15:21.689Z,15.53
2017-09-26T01:17:49.126Z,15.00
2017-09-26T01:20:16.563Z,13.10
2017-09-26T01:22:44.773Z,13.70
2017-09-26T01:25:12.205Z,13.70
2017-09-26T01:27:39.655Z,14.37
2017-09-26T01:30:07.096Z,14.23
2017-09-26T01:32:34.537Z,15.23
2017-09-26T01:35:01.972Z,14.83
2017-09-26T01:37:29.421Z,16.60
2017-09-26T01:39:56.855Z,15.17
2017-09-26T01:42:24.288Z,13.80
2017-09-26T01:44:52.526Z,13.57
2017-09-26T01:47:19.937Z,15.20
2017-09-26T01:49:47.391Z,14.70
2017-09-26T01:52:15.648Z,15.60
2017-09-26T01:54:43.861Z,15.70
2017-09-26T01:57:12.180Z,14.43
2017-09-26T01:59:42.187Z,15.23
2017-09-26T02:02:09.620Z,15.23
2017-09-26T02:04:37.074Z,14.87
2017-09-26T02:07:04.526Z,14.77
2017-09-26T02:09:31.944Z,14.67
2017-09-26T02:11:59.370Z,14.47
2017-09-26T02:14:26.816Z,15.03
2017-09-26T02:16:54.246Z,15.67
2017-09-26T02:19:21.675Z,14.67
2017-09-26T02:21:49.872Z,14.43
2017-09-26T02:24:17.303Z,16.63
2017-09-26T02:26:45.501Z,14.57
2017-09-26T02:29:12.929Z,16.50
2017-09-26T02:31:40.359Z,15.03
2017-09-26T02:34:07.794Z,15.40
2017-09-26T02:36:35.232Z,16.07
2017-09-26T02:39:02.663Z,17.33
2017-09-26T02:41:30.860Z,15.27
2017-09-26T02:43:58.289Z,16.50
2017-09-26T02:46:26.774Z,13.67
2017-09-26T02:48:54.972Z,12.80
2017-09-26T02:51:22.416Z,14.20
2017-09-26T02:53:50.605Z,12.70
2017-09-26T02:56:18.045Z,13.10
2017-09-26T02:58:46.249Z,12.83
2017-09-26T03:01:13.682Z,14.00
2017-09-26T03:03:41.912Z,13.93
2017-09-26T03:06:09.341Z,13.97
2017-09-26T03:08:36.775Z,12.53
2017-09-26T03:11:04.213Z,12.67
2017-09-26T03:13:32.410Z,15.00
2017-09-26T03:15:59.856Z,13.40
2017-09-26T03:18:28.065Z,15.37
2017-09-26T03:20:55.616Z,16.33
2017-09-26T03:23:23.044Z,15.83
2017-09-26T03:25:51.251Z,14.80
2017-09-26T03:28:18.699Z,14.27
2017-09-26T03:30:46.225Z,14.20
2017-09-26T03:33:14.500Z,16.47
2017-09-26T03:35:42.781Z,16.53
2017-09-26T03:38:10.984Z,14.87
2017-09-26T03:40:38.419Z,14.30
2017-09-26T03:43:05.862Z,17.80
2017-09-26T03:45:33.284Z,16.47
2017-09-26T03:48:00.729Z,18.40
2017-09-26T03:50:28.160Z,14.90
2017-09-26T03:52:55.597Z,15.30
2017-09-26T03:55:23.796Z,16.67
2017-09-26T03:57:51.235Z,16.87
2017-09-26T04:00:19.444Z,16.87
2017-09-26T04:02:46.905Z,16.83
2017-09-26T04:05:15.328Z,17.30
2017-09-26T04:07:42.747Z,17.67
2017-09-26T04:10:10.176Z,15.97
2017-09-26T04:12:37.612Z,16.50
2017-09-26T04:15:05.824Z,16.70
2017-09-26T04:17:33.252Z,16.73
2017-09-26T04:20:00.692Z,16.20
2017-09-26T04:22:28.923Z,16.87
2017-09-26T04:24:56.394Z,16.00
2017-09-26T04:27:23.832Z,18.37
2017-09-26T04:29:51.281Z,19.47
2017-09-26T04:32:18.711Z,19.40
2017-09-26T04:34:47.181Z,22.50
2017-09-26T04:37:15.381Z,20.03
2017-09-26T04:39:42.861Z,19.07
2017-09-26T04:42:10.264Z,22.27
2017-09-26T04:44:39.456Z,21.37
2017-09-26T04:47:06.896Z,21.60
2017-09-26T04:49:34.334Z,21.57
2017-09-26T04:52:01.820Z,18.07
2017-09-26T04:54:30.312Z,19.13
2017-09-26T04:56:57.751Z,21.10
2017-09-26T04:59:25.208Z,19.70
2017-09-26T05:01:52.657Z,21.10
2017-09-26T05:04:20.065Z,18.90
2017-09-26T05:06:47.495Z,22.40
2017-09-26T05:09:14.918Z,23.83
2017-09-26T05:11:42.357Z,22.13
2017-09-26T05:14:09.791Z,22.63
2017-09-26T05:16:37.228Z,21.80
2017-09-26T05:19:05.464Z,22.20
2017-09-26T05:21:32.911Z,19.07
2017-09-26T05:24:00.348Z,18.17
2017-09-26T05:26:27.792Z,19.63
2017-09-26T05:28:55.230Z,19.77
2017-09-26T05:31:23.434Z,19.20
2017-09-26T05:33:50.861Z,21.23
2017-09-26T05:36:19.071Z,19.80
2017-09-26T05:38:46.505Z,19.93
2017-09-26T05:41:15.691Z,20.53
2017-09-26T05:43:43.892Z,19.17
2017-09-26T05:46:11.371Z,21.00
2017-09-26T05:48:38.833Z,17.73
2017-09-26T05:51:06.305Z,19.00
2017-09-26T05:53:33.736Z,23.43
2017-09-26T05:56:01.172Z,19.37
2017-09-26T05:58:28.611Z,19.40
2017-09-26T06:00:56.812Z,19.67
2017-09-26T06:03:24.256Z,20.13
2017-09-26T06:05:51.690Z,20.60
2017-09-26T06:08:19.130Z,19.20
2017-09-26T06:10:46.563Z,18.37
2017-09-26T06:13:14.004Z,22.33
2017-09-26T06:15:41.422Z,21.17
2017-09-26T06:18:08.864Z,20.70
2017-09-26T06:20:36.297Z,19.13
2017-09-26T06:23:03.775Z,19.70
2017-09-26T06:25:31.241Z,20.17
2017-09-26T06:27:58.699Z,22.20
2017-09-26T06:30:26.120Z,21.73
2017-09-26T06:32:53.557Z,20.30
2017-09-26T06:35:20.983Z,21.57
2017-09-26T06:37:49.189Z,21.00
2017-09-26T06:40:16.639Z,20.27
2017-09-26T06:42:44.237Z,17.17
2017-09-26T06:45:11.672Z,22.20
2017-09-26T06:47:39.103Z,19.03
2017-09-26T06:50:10.078Z,19.50
2017-09-26T06:52:37.511Z,19.33
2017-09-26T06:55:05.955Z,19.67
2017-09-26T06:57:33.388Z,17.87
2017-09-26T07:00:00.975Z,19.47
2017-09-26T07:02:29.181Z,17.27
2017-09-26T07:04:56.743Z,20.37
2017-09-26T07:07:24.172Z,19.73
2017-09-26T07:09:52.373Z,20.40
2017-09-26T07:12:19.799Z,18.20
2017-09-26T07:14:47.235Z,21.00
2017-09-26T07:17:14.664Z,18.63
2017-09-26T07:19:42.095Z,20.27
2017-09-26T07:22:09.526Z,21.07
2017-09-26T07:24:36.958Z,19.90
2017-09-26T07:27:10.070Z,18.20
2017-09-26T07:29:38.272Z,19.03
2017-09-26T07:32:05.699Z,20.80
2017-09-26T07:34:33.899Z,20.53
2017-09-26T07:37:01.333Z,18.90
2017-09-26T07:39:29.532Z,20.83
2017-09-26T07:41:56.975Z,20.60
2017-09-26T07:44:25.182Z,18.70
2017-09-26T07:46:52.607Z,18.80
2017-09-26T07:49:20.816Z,19.23
2017-09-26T07:51:48.247Z,19.73
2017-09-26T07:54:15.683Z,18.47
2017-09-26T07:56:43.915Z,20.70
2017-09-26T07:59:11.491Z,21.03
2017-09-26T08:01:38.931Z,17.70
2017-09-26T08:04:06.721Z,19.70
2017-09-26T08:06:34.315Z,18.40
2017-09-26T08:09:03.920Z,17.87
2017-09-26T08:11:32.126Z,18.73
2017-09-26T08:13:59.548Z,18.97
2017-09-26T08:16:26.982Z,17.80
2017-09-26T08:18:54.415Z,17.73
2017-09-26T08:21:21.903Z,17.43
2017-09-26T08:23:49.336Z,19.67
2017-09-26T08:26:16.785Z,17.87
2017-09-26T08:28:44.215Z,18.10
2017-09-26T08:31:11.635Z,16.47
2017-09-26T08:33:39.844Z,16.10
2017-09-26T08:36:07.277Z,16.93
2017-09-26T08:38:35.480Z,16.40
2017-09-26T08:41:02.903Z,16.00
2017-09-26T08:43:31.108Z,17.03
2017-09-26T08:45:58.544Z,15.20
2017-09-26T08:48:26.744Z,14.50
2017-09-26T08:50:54.180Z,16.40
2017-09-26T08:53:22.400Z,15.47
2017-09-26T08:55:49.831Z,16.17
2017-09-26T08:58:17.256Z,15.70
2017-09-26T09:00:44.688Z,15.40
2017-09-26T09:03:12.112Z,16.43
2017-09-26T09:05:39.549Z,14.30
2017-09-26T09:08:06.982Z,16.07
2017-09-26T09:10:34.412Z,14.90
2017-09-26T09:13:01.843Z,15.10
2017-09-26T09:15:29.279Z,15.23
2017-09-26T09:17:56.709Z,14.63
2017-09-26T09:20:24.907Z,13.77
2017-09-26T09:22:52.336Z,13.90
2017-09-26T09:25:20.551Z,13.10
2017-09-26T09:27:47.989Z,14.17
2017-09-26T09:30:15.426Z,13.90
2017-09-26T09:32:43.619Z,13.80
2017-09-26T09:35:12.107Z,12.30
2017-09-26T09:37:39.548Z,12.37
2017-09-26T09:40:07.755Z,13.70
2017-09-26T09:42:35.181Z,11.77
2017-09-26T09:45:02.612Z,12.80
2017-09-26T09:47:30.048Z,12.77
2017-09-26T09:52:28.287Z,11.97
2017-09-26T09:54:55.725Z,11.17
2017-09-26T09:57:23.160Z,11.23
2017-09-26T09:59:50.600Z,11.27
2017-09-26T10:02:18.042Z,10.33
2017-09-26T10:04:45.472Z,11.10
2017-09-26T10:07:12.908Z,11.23
2017-09-26T10:09:41.103Z,9.90
2017-09-26T10:12:08.536Z,13.20
2017-09-26T10:14:35.971Z,12.43
2017-09-26T10:17:03.411Z,10.57
2017-09-26T10:19:30.838Z,12.60
2017-09-26T10:21:58.275Z,9.97
2017-09-26T10:24:26.467Z,10.47
2017-09-26T10:26:53.904Z,11.63
2017-09-26T10:29:22.105Z,10.33
2017-09-26T10:31:51.487Z,12.47
2017-09-26T10:34:19.680Z,12.00
2017-09-26T10:36:47.115Z,12.93
2017-09-26T10:39:15.310Z,12.77
2017-09-26T10:41:42.739Z,11.80
2017-09-26T10:44:10.944Z,11.00
2017-09-26T10:46:38.372Z,11.90
2017-09-26T10:49:06.571Z,12.70
2017-09-26T10:51:34.007Z,11.57
2017-09-26T10:54:02.202Z,10.77
2017-09-26T10:56:29.629Z,11.20
2017-09-26T10:58:57.059Z,10.40
2017-09-26T11:01:24.503Z,12.63
2017-09-26T11:03:51.935Z,13.17
2017-09-26T11:06:19.367Z,12.77
2017-09-26T11:08:47.567Z,11.80
2017-09-26T11:11:16.923Z,12.87
2017-09-26T11:13:44.364Z,10.93
2017-09-26T11:16:11.804Z,10.90
2017-09-26T11:18:39.250Z,10.90
2017-09-26T11:21:06.675Z,11.53
2017-09-26T11:23:34.896Z,12.30
2017-09-26T11:26:02.383Z,12.00
2017-09-26T11:28:29.819Z,11.73
2017-09-26T11:30:57.312Z,13.63
2017-09-26T11:33:25.530Z,12.27
2017-09-26T11:35:52.982Z,12.80
2017-09-26T11:38:20.438Z,12.40
2017-09-26T11:40:47.868Z,11.47
2017-09-26T11:43:16.149Z,13.23
2017-09-26T11:45:44.347Z,12.20
2017-09-26T11:48:11.783Z,12.60
2017-09-26T11:50:39.993Z,12.47
2017-09-26T11:53:07.439Z,12.83
2017-09-26T11:55:34.872Z,12.43
2017-09-26T11:58:02.317Z,12.40
2017-09-26T12:00:30.536Z,12.77
2017-09-26T12:02:57.979Z,11.70
2017-09-26T12:05:25.419Z,12.27
2017-09-26T12:07:52.852Z,11.17
2017-09-26T12:10:21.059Z,11.60
2017-09-26T12:12:54.072Z,9.83
2017-09-26T12:15:21.520Z,11.57
2017-09-26T12:17:48.965Z,12.10
2017-09-26T12:20:16.417Z,13.33
2017-09-26T12:22:43.853Z,11.73
2017-09-26T12:25:12.068Z,10.63
2017-09-26T12:27:39.503Z,10.73
2017-09-26T12:30:06.944Z,10.07
2017-09-26T12:32:35.159Z,10.80
2017-09-26T12:35:02.591Z,12.87
2017-09-26T12:37:30.028Z,12.50
2017-09-26T12:39:58.243Z,13.00
2017-09-26T12:42:25.753Z,13.50
2017-09-26T12:44:53.188Z,12.63
2017-09-26T12:47:20.619Z,12.33
2017-09-26T12:49:48.063Z,11.30
2017-09-26T12:52:17.663Z,10.60
2017-09-26T12:54:45.144Z,10.03
2017-09-26T12:57:12.592Z,10.77
2017-09-26T12:59:40.803Z,9.90
2017-09-26T13:02:09.295Z,10.13
2017-09-26T13:04:37.114Z,10.93
2017-09-26T13:07:04.523Z,10.83
2017-09-26T13:09:34.750Z,12.37
2017-09-26T13:12:02.953Z,13.13
2017-09-26T13:14:30.385Z,9.83
2017-09-26T13:16:58.592Z,11.60
2017-09-26T13:19:26.108Z,10.77
2017-09-26T13:21:55.616Z,9.70
2017-09-26T13:24:23.840Z,12.60
2017-09-26T13:26:51.292Z,11.10
2017-09-26T13:29:18.728Z,10.47
2017-09-26T13:31:46.174Z,8.83
2017-09-26T13:34:14.387Z,12.40
2017-09-26T13:36:41.797Z,11.47
2017-09-26T13:39:09.220Z,12.67
2017-09-26T13:41:36.783Z,9.70
2017-09-26T13:44:04.219Z,11.07
2017-09-26T13:46:31.725Z,11.13
2017-09-26T13:48:59.169Z,11.30
2017-09-26T13:51:30.730Z,10.80
2017-09-26T13:53:58.924Z,9.90
2017-09-26T13:56:27.132Z,12.23
2017-09-26T13:58:54.591Z,11.53
2017-09-26T14:01:22.042Z,11.00
2017-09-26T14:03:49.469Z,9.97
2017-09-26T14:06:16.900Z,12.10
2017-09-26T14:08:44.343Z,10.10
2017-09-26T14:11:11.851Z,10.20
2017-09-26T14:13:40.308Z,9.93
2017-09-26T14:16:16.232Z,12.23
2017-09-26T14:18:43.668Z,8.57
2017-09-26T14:21:18.724Z,10.27
2017-09-26T14:23:46.318Z,9.70
2017-09-26T14:26:14.515Z,12.40
2017-09-26T14:28:41.980Z,11.10
2017-09-26T14:31:09.408Z,10.67
2017-09-26T14:33:37.601Z,9.80
2017-09-26T14:36:08.304Z,10.93
2017-09-26T14:38:35.772Z,10.27
2017-09-26T14:41:05.979Z,9.80
2017-09-26T14:43:33.426Z,10.53
2017-09-26T14:46:00.899Z,7.60
2017-09-26T14:48:28.334Z,10.53
2017-09-26T14:50:55.775Z,9.93
2017-09-26T14:53:27.787Z,9.63
2017-09-26T14:55:55.985Z,10.70
2017-09-26T14:58:23.420Z,10.07
2017-09-26T15:00:51.695Z,11.30
2017-09-26T15:03:19.956Z,10.23
2017-09-26T15:05:47.390Z,10.53
2017-09-26T15:08:14.824Z,10.17
2017-09-26T15:10:42.268Z,9.67
2017-09-26T15:13:12.763Z,8.80
2017-09-26T15:15:40.963Z,11.27
2017-09-26T15:18:08.424Z,10.07
2017-09-26T15:20:36.623Z,10.00
2017-09-26T15:23:04.055Z,10.77
2017-09-26T15:25:34.969Z,11.73
2017-09-26T15:28:03.167Z,10.70
2017-09-26T15:30:30.604Z,11.00
2017-09-26T15:32:58.823Z,10.47
2017-09-26T15:35:26.436Z,9.80
2017-09-26T15:37:54.908Z,10.00
2017-09-26T15:40:22.339Z,9.63
2017-09-26T15:42:49.819Z,11.70
2017-09-26T15:45:18.066Z,11.40
2017-09-26T15:47:51.893Z,9.53
2017-09-26T15:50:19.318Z,10.00
2017-09-26T15:52:46.757Z,10.00
2017-09-26T15:55:17.782Z,10.20
2017-09-26T15:57:45.219Z,10.33
2017-09-26T16:00:12.647Z,11.00
2017-09-26T16:02:40.084Z,8.90
2017-09-26T16:05:07.503Z,9.60
2017-09-26T16:07:35.710Z,10.03
2017-09-26T16:10:03.143Z,9.97
2017-09-26T16:12:30.576Z,11.40
2017-09-26T16:14:58.000Z,9.00
2017-09-26T16:17:25.436Z,9.80
2017-09-26T16:19:52.878Z,10.10
2017-09-26T16:22:21.414Z,9.60
2017-09-26T16:24:48.845Z,10.23
2017-09-26T16:27:16.339Z,9.53
2017-09-26T16:29:43.807Z,9.10
2017-09-26T16:32:11.232Z,10.70
2017-09-26T16:34:38.667Z,10.10
2017-09-26T16:37:06.125Z,9.50
2017-09-26T16:39:33.556Z,9.90
2017-09-26T16:42:00.987Z,11.90
2017-09-26T16:44:29.189Z,9.20
2017-09-26T16:46:58.589Z,10.67
2017-09-26T16:49:26.024Z,10.07
2017-09-26T16:51:54.235Z,10.03
2017-09-26T16:54:21.661Z,10.07
2017-09-26T16:56:49.096Z,10.00
2017-09-26T16:59:16.524Z,10.50
2017-09-26T17:01:43.955Z,10.70
2017-09-26T17:04:11.555Z,13.67
2017-09-26T17:06:49.355Z,15.43
2017-09-26T17:09:16.783Z,13.90
2017-09-26T17:11:44.244Z,11.30
2017-09-26T17:14:11.668Z,10.27
2017-09-26T17:16:39.109Z,11.00
2017-09-26T17:19:07.308Z,9.93
2017-09-26T17:21:34.749Z,10.80
2017-09-26T17:24:02.947Z,10.33
2017-09-26T17:26:30.381Z,10.50
2017-09-26T17:28:58.571Z,11.27
2017-09-26T17:31:26.008Z,10.23
2017-09-26T17:33:54.304Z,11.07
2017-09-26T17:36:21.728Z,11.17
2017-09-26T17:38:49.164Z,11.73
2017-09-26T17:41:17.580Z,12.27
2017-09-26T17:43:45.790Z,12.57
2017-09-26T17:46:13.224Z,10.30
2017-09-26T17:48:40.656Z,11.40
2017-09-26T17:51:08.099Z,11.50
2017-09-26T17:53:35.536Z,13.00
2017-09-26T17:56:02.964Z,12.67
2017-09-26T17:58:30.408Z,11.60
2017-09-26T18:00:57.832Z,13.00
2017-09-26T18:03:25.271Z,13.80
2017-09-26T18:05:52.704Z,13.23
2017-09-26T18:08:26.886Z,12.90
2017-09-26T18:10:54.320Z,13.20
2017-09-26T18:13:21.782Z,11.30
2017-09-26T18:15:49.977Z,12.77
2017-09-26T18:18:17.408Z,13.03
2017-09-26T18:20:44.835Z,12.60
2017-09-26T18:23:12.284Z,12.80
2017-09-26T18:25:39.745Z,11.07
2017-09-26T18:28:07.164Z,13.80
2017-09-26T18:30:34.586Z,13.30
2017-09-26T18:33:02.029Z,13.80
2017-09-26T18:35:29.459Z,14.10
2017-09-26T18:37:56.904Z,13.63
2017-09-26T18:40:24.328Z,11.70
2017-09-26T18:42:53.628Z,12.10
2017-09-26T18:45:21.827Z,11.80
2017-09-26T18:47:49.259Z,11.67
2017-09-26T18:50:17.464Z,12.40
2017-09-26T18:52:44.972Z,11.80
2017-09-26T18:55:12.411Z,11.20
2017-09-26T18:57:39.850Z,12.70
2017-09-26T19:00:07.293Z,12.73
2017-09-26T19:02:34.723Z,13.23
2017-09-26T19:05:02.924Z,14.03
2017-09-26T19:07:30.448Z,12.93
2017-09-26T19:09:57.928Z,13.70
2017-09-26T19:12:26.132Z,13.50
2017-09-26T19:14:54.336Z,11.20
2017-09-26T19:17:21.773Z,13.30
2017-09-26T19:19:49.208Z,13.23
2017-09-26T19:22:16.635Z,12.87
2017-09-26T19:24:44.849Z,12.43
2017-09-26T19:27:12.284Z,13.90
2017-09-26T19:29:39.715Z,12.77
2017-09-26T19:32:07.916Z,13.00
2017-09-26T19:34:35.364Z,13.87
2017-09-26T19:37:03.569Z,13.60
2017-09-26T19:39:32.020Z,12.47
2017-09-26T19:42:00.224Z,12.77
2017-09-26T19:44:27.660Z,13.77
2017-09-26T19:46:55.094Z,12.70
2017-09-26T19:49:23.306Z,13.90
2017-09-26T19:51:50.729Z,14.37
2017-09-26T19:54:18.924Z,15.60
2017-09-26T19:56:46.383Z,13.87
2017-09-26T19:59:13.823Z,14.27
2017-09-26T20:01:42.033Z,13.00
2017-09-26T20:04:09.489Z,14.20
2017-09-26T20:06:36.911Z,12.53
2017-09-26T20:09:05.120Z,13.23
2017-09-26T20:11:32.552Z,12.10
2017-09-26T20:13:59.983Z,12.10
2017-09-26T20:16:28.487Z,14.13
2017-09-26T20:18:56.679Z,13.00
2017-09-26T20:21:24.116Z,13.60
2017-09-26T20:23:51.549Z,13.40
2017-09-26T20:26:18.983Z,12.50
2017-09-26T20:28:46.420Z,12.70
2017-09-26T20:31:13.873Z,11.93
2017-09-26T20:33:41.305Z,12.97
2017-09-26T20:36:08.741Z,12.57
2017-09-26T20:38:36.944Z,12.67
2017-09-26T20:41:04.392Z,13.57
2017-09-26T20:43:32.586Z,11.33
2017-09-26T20:46:00.016Z,13.60
2017-09-26T20:48:27.451Z,13.17
2017-09-26T20:50:54.888Z,13.50
2017-09-26T20:53:22.320Z,11.67
2017-09-26T20:55:50.519Z,13.47
2017-09-26T20:58:17.954Z,13.90
2017-09-26T21:00:45.407Z,12.70
2017-09-26T21:03:12.835Z,12.70
2017-09-26T21:05:40.268Z,13.30
2017-09-26T21:08:07.696Z,12.97
2017-09-26T21:10:35.133Z,14.13
2017-09-26T21:13:02.611Z,12.37
2017-09-26T21:15:30.027Z,13.03
2017-09-26T21:17:57.457Z,12.37
2017-09-26T21:20:24.887Z,13.03
2017-09-26T21:22:52.324Z,13.10
2017-09-26T21:25:19.764Z,12.43
2017-09-26T21:27:47.974Z,13.70
2017-09-26T21:30:15.412Z,13.67
2017-09-26T21:32:42.864Z,12.03
2017-09-26T21:35:10.289Z,12.40
2017-09-26T21:37:38.490Z,12.77
2017-09-26T21:40:06.007Z,12.67
2017-09-26T21:42:34.209Z,12.50
2017-09-26T21:45:01.639Z,14.13
2017-09-26T21:47:29.845Z,12.23
2017-09-26T21:49:57.275Z,13.00
2017-09-26T21:52:25.489Z,12.30
2017-09-26T21:54:52.917Z,14.10
2017-09-26T21:57:20.351Z,12.63
2017-09-26T21:59:47.783Z,13.80
2017-09-26T22:02:15.220Z,13.00
2017-09-26T22:04:42.657Z,14.20
2017-09-26T22:07:10.092Z,13.10
2017-09-26T22:09:37.520Z,14.20
2017-09-26T22:12:04.965Z,13.23
2017-09-26T22:14:32.399Z,13.33
2017-09-26T22:16:59.832Z,13.53
2017-09-26T22:19:27.261Z,12.97
2017-09-26T22:21:54.696Z,13.37
2017-09-26T22:24:22.127Z,13.27
2017-09-26T22:26:49.559Z,14.30
2017-09-26T22:29:17.035Z,14.10
2017-09-26T22:31:44.463Z,13.53
2017-09-26T22:34:12.659Z,14.00
2017-09-26T22:36:40.099Z,13.40
2017-09-26T22:39:07.532Z,15.47
2017-09-26T22:41:34.969Z,14.53
2017-09-26T22:44:02.400Z,13.60
2017-09-26T22:46:29.832Z,14.13
2017-09-26T22:48:57.263Z,13.13
2017-09-26T22:51:25.464Z,13.47
2017-09-26T22:53:52.900Z,15.40
2017-09-26T22:56:21.091Z,14.57
2017-09-26T22:58:48.533Z,13.37
2017-09-26T23:01:16.792Z,14.17
2017-09-26T23:03:44.232Z,13.67
2017-09-26T23:06:11.664Z,13.60
2017-09-26T23:08:39.104Z,14.20
2017-09-26T23:11:06.531Z,15.97
2017-09-26T23:13:34.743Z,14.07
2017-09-26T23:16:02.172Z,14.60
2017-09-26T23:18:30.382Z,14.33
2017-09-26T23:20:57.814Z,13.87
2017-09-26T23:23:26.005Z,13.63
2017-09-26T23:25:53.432Z,13.90
2017-09-26T23:28:21.627Z,12.93
2017-09-26T23:30:49.065Z,13.50
2017-09-26T23:33:17.275Z,15.97
2017-09-26T23:35:44.707Z,13.67
2017-09-26T23:38:12.147Z,15.30
2017-09-26T23:40:40.352Z,14.57
2017-09-26T23:43:07.780Z,13.23
2017-09-26T23:45:35.995Z,16.60
2017-09-26T23:48:03.424Z,15.20
2017-09-26T23:50:31.627Z,14.47
2017-09-26T23:52:59.052Z,13.60
2017-09-26T23:55:27.259Z,13.87
2017-09-26T23:57:54.695Z,13.30
